ポルト・アレグレ の空港の天気 - METARとTAF

ポルト・アレグレ国際空港 ( SBPA / POA ) - ブラジル リオグランデ・ド・スル州ポルト・アレグレ
飛行場実況気象(Metar)
観測時間10/21 12:00 BRT (10/21 15:00 UTC)
風向・風速南東 7m/s
視程8000m
天気現象
全天の8割程度の雲 雲底高度 400m
全天の8割程度の雲 雲底高度 610m
気温24℃
湿度83%
気圧1021hPa
METARSBPA 211500Z 13013KT 8000 BKN013 BKN020 24/21 Q1021
過去の天気等 Google飛行場航空写真 Wunderground天気予報

過去48時間のMETAR

飛行場予報(TAF)
発表時間: 10/21 06:00 BRT (10/21 09:00 UTC)
予報対象時間: 21日9時 BRT ~ 22日9時 BRT
風向・風速東 5m/s
視程7000m
全天の8割程度の雲 雲底高度 460m
21日12時 BRT ~ 21日14時 BRT に徐々に
全天の8割程度の雲 雲底高度 610m
TAF SBPA 210900Z 2112/2212 09009KT 7000 BKN015 TX25/2118Z TN17/2209Z
BECMG 2115/2117 BKN020 RMK PAZ